sensor_id;sensor_type;location;lat;lon;timestamp;pressure;altitude;pressure_sealevel;temperature;humidity
20368;BME280;10343;52.402;9.796;2023-05-01T00:00:57;101389.34;;;16.69;33.80
20368;BME280;10343;52.402;9.796;2023-05-01T00:03:26;101384.69;;;16.74;33.98
20368;BME280;10343;52.402;9.796;2023-05-01T00:05:58;101374.25;;;16.92;33.42
20368;BME280;10343;52.402;9.796;2023-05-01T00:08:27;101379.69;;;16.65;33.89
20368;BME280;10343;52.402;9.796;2023-05-01T00:10:55;101376.34;;;16.58;33.93
20368;BME280;10343;52.402;9.796;2023-05-01T00:13:24;101369.56;;;16.73;33.83
20368;BME280;10343;52.402;9.796;2023-05-01T00:15:54;101370.13;;;16.58;34.03
20368;BME280;10343;52.402;9.796;2023-05-01T00:18:22;101362.69;;;16.42;34.39
20368;BME280;10343;52.402;9.796;2023-05-01T00:20:51;101363.34;;;16.73;34.03
20368;BME280;10343;52.402;9.796;2023-05-01T00:23:19;101372.22;;;15.99;35.17
20368;BME280;10343;52.402;9.796;2023-05-01T00:25:47;101364.91;;;16.55;34.26
20368;BME280;10343;52.402;9.796;2023-05-01T00:28:17;101360.34;;;16.33;34.59
20368;BME280;10343;52.402;9.796;2023-05-01T00:30:45;101353.28;;;16.79;34.17
20368;BME280;10343;52.402;9.796;2023-05-01T00:33:21;101354.66;;;16.42;34.73
20368;BME280;10343;52.402;9.796;2023-05-01T00:35:49;101354.59;;;15.93;35.39
20368;BME280;10343;52.402;9.796;2023-05-01T00:38:19;101346.75;;;16.39;34.88
20368;BME280;10343;52.402;9.796;2023-05-01T00:40:50;101338.91;;;16.09;35.07
20368;BME280;10343;52.402;9.796;2023-05-01T00:43:18;101338.31;;;16.01;35.64
20368;BME280;10343;52.402;9.796;2023-05-01T00:45:47;101339.03;;;15.79;35.80
20368;BME280;10343;52.402;9.796;2023-05-01T00:48:17;101340.91;;;16.03;35.61
20368;BME280;10343;52.402;9.796;2023-05-01T00:50:49;101332.72;;;16.07;35.50
20368;BME280;10343;52.402;9.796;2023-05-01T00:53:18;101332.50;;;16.13;35.63
20368;BME280;10343;52.402;9.796;2023-05-01T00:55:47;101335.06;;;16.17;35.39
20368;BME280;10343;52.402;9.796;2023-05-01T00:58:16;101333.50;;;16.11;35.65
20368;BME280;10343;52.402;9.796;2023-05-01T01:00:45;101337.53;;;16.23;35.32
20368;BME280;10343;52.402;9.796;2023-05-01T01:03:14;101337.44;;;16.01;35.84
20368;BME280;10343;52.402;9.796;2023-05-01T01:05:46;101324.25;;;16.20;35.33
20368;BME280;10343;52.402;9.796;2023-05-01T01:08:22;101327.09;;;15.63;36.50
20368;BME280;10343;52.402;9.796;2023-05-01T01:10:59;101322.22;;;15.76;36.04
20368;BME280;10343;52.402;9.796;2023-05-01T01:13:32;101328.25;;;15.56;36.76
20368;BME280;10343;52.402;9.796;2023-05-01T01:16:10;101327.38;;;15.82;36.09
20368;BME280;10343;52.402;9.796;2023-05-01T01:19:11;101318.16;;;15.64;36.62
20368;BME280;10343;52.402;9.796;2023-05-01T01:22:05;101319.09;;;15.36;36.87
20368;BME280;10343;52.402;9.796;2023-05-01T01:24:47;101314.09;;;14.99;37.68
20368;BME280;10343;52.402;9.796;2023-05-01T01:27:38;101310.81;;;15.44;36.95
20368;BME280;10343;52.402;9.796;2023-05-01T01:30:31;101312.09;;;15.32;37.05
20368;BME280;10343;52.402;9.796;2023-05-01T01:33:32;101308.38;;;15.09;37.67
20368;BME280;10343;52.402;9.796;2023-05-01T01:36:07;101312.03;;;15.07;37.55
20368;BME280;10343;52.402;9.796;2023-05-01T01:38:42;101300.47;;;15.06;37.46
20368;BME280;10343;52.402;9.796;2023-05-01T01:41:18;101292.09;;;15.45;37.09
20368;BME280;10343;52.402;9.796;2023-05-01T01:43:54;101297.25;;;15.23;37.44
20368;BME280;10343;52.402;9.796;2023-05-01T01:46:26;101297.94;;;14.73;38.01
20368;BME280;10343;52.402;9.796;2023-05-01T01:48:57;101291.44;;;15.10;37.65
20368;BME280;10343;52.402;9.796;2023-05-01T01:51:27;101282.75;;;15.04;37.74
20368;BME280;10343;52.402;9.796;2023-05-01T01:53:57;101278.69;;;14.92;37.67
20368;BME280;10343;52.402;9.796;2023-05-01T01:56:28;101281.75;;;15.35;37.21
20368;BME280;10343;52.402;9.796;2023-05-01T01:59:00;101275.34;;;14.85;37.63
20368;BME280;10343;52.402;9.796;2023-05-01T02:01:30;101271.09;;;14.48;38.38
20368;BME280;10343;52.402;9.796;2023-05-01T02:04:03;101264.44;;;15.20;37.65
20368;BME280;10343;52.402;9.796;2023-05-01T02:06:35;101259.94;;;15.20;37.08
20368;BME280;10343;52.402;9.796;2023-05-01T02:09:05;101258.44;;;15.65;36.46
20368;BME280;10343;52.402;9.796;2023-05-01T02:11:34;101269.72;;;15.21;37.21
20368;BME280;10343;52.402;9.796;2023-05-01T02:14:04;101273.44;;;14.89;37.64
20368;BME280;10343;52.402;9.796;2023-05-01T02:16:34;101257.63;;;14.83;38.35
20368;BME280;10343;52.402;9.796;2023-05-01T02:19:06;101263.47;;;14.94;37.91
20368;BME280;10343;52.402;9.796;2023-05-01T02:21:35;101254.72;;;14.89;37.89
20368;BME280;10343;52.402;9.796;2023-05-01T02:24:06;101242.13;;;15.48;36.99
20368;BME280;10343;52.402;9.796;2023-05-01T02:26:40;101240.06;;;15.56;36.92
20368;BME280;10343;52.402;9.796;2023-05-01T02:29:09;101239.66;;;15.15;37.40
20368;BME280;10343;52.402;9.796;2023-05-01T02:31:38;101227.97;;;14.92;37.83
20368;BME280;10343;52.402;9.796;2023-05-01T02:34:08;101223.25;;;15.00;38.04
20368;BME280;10343;52.402;9.796;2023-05-01T02:36:38;101218.44;;;14.83;37.96
20368;BME280;10343;52.402;9.796;2023-05-01T02:39:06;101218.06;;;14.67;38.40
20368;BME280;10343;52.402;9.796;2023-05-01T02:41:36;101210.59;;;14.78;37.85
20368;BME280;10343;52.402;9.796;2023-05-01T02:44:08;101199.41;;;14.67;38.47
20368;BME280;10343;52.402;9.796;2023-05-01T02:46:41;101208.66;;;14.84;38.05
20368;BME280;10343;52.402;9.796;2023-05-01T02:49:14;101201.22;;;15.45;37.08
20368;BME280;10343;52.402;9.796;2023-05-01T02:51:44;101205.97;;;15.10;37.41
20368;BME280;10343;52.402;9.796;2023-05-01T02:54:13;101200.63;;;15.10;37.47
20368;BME280;10343;52.402;9.796;2023-05-01T02:56:43;101198.44;;;15.49;37.00
20368;BME280;10343;52.402;9.796;2023-05-01T02:59:11;101198.72;;;14.87;37.98
20368;BME280;10343;52.402;9.796;2023-05-01T03:01:40;101197.66;;;14.36;38.96
20368;BME280;10343;52.402;9.796;2023-05-01T03:04:08;101199.78;;;14.25;38.89
20368;BME280;10343;52.402;9.796;2023-05-01T03:06:39;101188.44;;;14.75;38.51
20368;BME280;10343;52.402;9.796;2023-05-01T03:09:08;101190.88;;;14.83;38.02
20368;BME280;10343;52.402;9.796;2023-05-01T03:11:36;101194.91;;;14.39;38.64
20368;BME280;10343;52.402;9.796;2023-05-01T03:14:05;101192.00;;;14.17;39.24
20368;BME280;10343;52.402;9.796;2023-05-01T03:16:33;101204.78;;;13.74;40.08
20368;BME280;10343;52.402;9.796;2023-05-01T03:19:02;101200.13;;;14.42;39.41
20368;BME280;10343;52.402;9.796;2023-05-01T03:21:31;101194.06;;;14.94;37.97
20368;BME280;10343;52.402;9.796;2023-05-01T03:24:01;101186.66;;;15.02;37.54
20368;BME280;10343;52.402;9.796;2023-05-01T03:26:30;101183.22;;;14.14;39.47
20368;BME280;10343;52.402;9.796;2023-05-01T03:28:58;101181.34;;;14.46;39.18
20368;BME280;10343;52.402;9.796;2023-05-01T03:31:27;101172.22;;;14.53;38.75
20368;BME280;10343;52.402;9.796;2023-05-01T03:33:57;101174.91;;;14.53;39.17
20368;BME280;10343;52.402;9.796;2023-05-01T03:36:25;101169.03;;;14.41;39.12
20368;BME280;10343;52.402;9.796;2023-05-01T03:38:54;101172.38;;;14.48;38.95
20368;BME280;10343;52.402;9.796;2023-05-01T03:41:47;101159.63;;;14.86;37.99
20368;BME280;10343;52.402;9.796;2023-05-01T03:44:34;101161.31;;;14.60;38.86
20368;BME280;10343;52.402;9.796;2023-05-01T03:47:03;101158.44;;;14.95;38.08
20368;BME280;10343;52.402;9.796;2023-05-01T03:49:36;101158.97;;;14.80;38.37
20368;BME280;10343;52.402;9.796;2023-05-01T03:52:04;101153.44;;;14.56;38.72
20368;BME280;10343;52.402;9.796;2023-05-01T03:54:33;101145.25;;;14.64;38.73
20368;BME280;10343;52.402;9.796;2023-05-01T03:57:19;101141.84;;;14.57;39.21
20368;BME280;10343;52.402;9.796;2023-05-01T03:59:49;101146.38;;;14.55;39.19
20368;BME280;10343;52.402;9.796;2023-05-01T04:02:18;101143.44;;;14.36;39.52
20368;BME280;10343;52.402;9.796;2023-05-01T04:04:47;101142.84;;;14.26;39.49
20368;BME280;10343;52.402;9.796;2023-05-01T04:07:15;101142.09;;;14.77;38.95
20368;BME280;10343;52.402;9.796;2023-05-01T04:09:46;101137.50;;;14.83;38.99
20368;BME280;10343;52.402;9.796;2023-05-01T04:12:15;101129.41;;;14.29;39.46
20368;BME280;10343;52.402;9.796;2023-05-01T04:14:45;101128.41;;;14.33;39.37
20368;BME280;10343;52.402;9.796;2023-05-01T04:17:14;101132.56;;;14.42;39.39
20368;BME280;10343;52.402;9.796;2023-05-01T04:19:42;101128.63;;;13.97;39.99
20368;BME280;10343;52.402;9.796;2023-05-01T04:22:11;101127.78;;;14.52;39.42
20368;BME280;10343;52.402;9.796;2023-05-01T04:24:40;101134.59;;;14.34;39.71
20368;BME280;10343;52.402;9.796;2023-05-01T04:27:09;101128.00;;;14.46;39.17
20368;BME280;10343;52.402;9.796;2023-05-01T04:29:38;101126.56;;;14.64;38.80
20368;BME280;10343;52.402;9.796;2023-05-01T04:32:09;101127.78;;;14.52;39.28
20368;BME280;10343;52.402;9.796;2023-05-01T04:34:37;101127.63;;;15.11;38.12
20368;BME280;10343;52.402;9.796;2023-05-01T04:37:07;101125.44;;;15.23;38.25
20368;BME280;10343;52.402;9.796;2023-05-01T04:39:36;101121.22;;;14.90;38.53
20368;BME280;10343;52.402;9.796;2023-05-01T04:42:05;101123.75;;;15.45;37.68
20368;BME280;10343;52.402;9.796;2023-05-01T04:44:33;101115.50;;;15.52;37.31
20368;BME280;10343;52.402;9.796;2023-05-01T04:47:03;101119.53;;;15.38;37.78
20368;BME280;10343;52.402;9.796;2023-05-01T04:49:33;101120.38;;;15.64;37.17
20368;BME280;10343;52.402;9.796;2023-05-01T04:52:03;101121.88;;;15.71;36.75
20368;BME280;10343;52.402;9.796;2023-05-01T04:54:44;101125.31;;;15.26;37.89
20368;BME280;10343;52.402;9.796;2023-05-01T04:57:12;101116.31;;;15.03;37.71
20368;BME280;10343;52.402;9.796;2023-05-01T04:59:41;101124.63;;;14.69;38.45
20368;BME280;10343;52.402;9.796;2023-05-01T05:02:10;101118.41;;;15.69;37.33
20368;BME280;10343;52.402;9.796;2023-05-01T05:04:40;101119.78;;;15.32;37.55
20368;BME280;10343;52.402;9.796;2023-05-01T05:07:08;101114.53;;;15.29;37.50
20368;BME280;10343;52.402;9.796;2023-05-01T05:09:59;101118.28;;;15.72;36.96
20368;BME280;10343;52.402;9.796;2023-05-01T05:12:28;101114.25;;;15.60;36.99
20368;BME280;10343;52.402;9.796;2023-05-01T05:14:57;101115.63;;;15.96;36.38
20368;BME280;10343;52.402;9.796;2023-05-01T05:17:25;101115.63;;;15.72;36.83
20368;BME280;10343;52.402;9.796;2023-05-01T05:19:55;101113.06;;;15.69;37.11
20368;BME280;10343;52.402;9.796;2023-05-01T05:22:24;101121.47;;;16.52;35.78
20368;BME280;10343;52.402;9.796;2023-05-01T05:25:15;101116.63;;;16.39;35.67
20368;BME280;10343;52.402;9.796;2023-05-01T05:27:44;101113.75;;;16.87;34.94
20368;BME280;10343;52.402;9.796;2023-05-01T05:30:12;101119.41;;;16.36;35.50
20368;BME280;10343;52.402;9.796;2023-05-01T05:32:41;101104.59;;;16.27;36.00
20368;BME280;10343;52.402;9.796;2023-05-01T05:35:11;101109.56;;;15.92;36.44
20368;BME280;10343;52.402;9.796;2023-05-01T05:37:40;101108.78;;;15.40;37.14
20368;BME280;10343;52.402;9.796;2023-05-01T05:40:12;101116.03;;;16.75;35.41
20368;BME280;10343;52.402;9.796;2023-05-01T05:42:58;101113.78;;;16.64;35.26
20368;BME280;10343;52.402;9.796;2023-05-01T05:45:28;101103.97;;;16.21;35.69
20368;BME280;10343;52.402;9.796;2023-05-01T05:47:57;101105.91;;;16.39;35.76
20368;BME280;10343;52.402;9.796;2023-05-01T05:50:28;101110.44;;;16.37;35.71
20368;BME280;10343;52.402;9.796;2023-05-01T05:52:58;101096.47;;;16.73;35.48
20368;BME280;10343;52.402;9.796;2023-05-01T05:55:27;101100.28;;;16.01;36.25
20368;BME280;10343;52.402;9.796;2023-05-01T05:58:01;101103.28;;;16.16;36.47
20368;BME280;10343;52.402;9.796;2023-05-01T06:00:30;101103.97;;;16.43;35.73
20368;BME280;10343;52.402;9.796;2023-05-01T06:03:03;101103.25;;;16.39;35.93
20368;BME280;10343;52.402;9.796;2023-05-01T06:05:35;101093.88;;;16.50;35.73
20368;BME280;10343;52.402;9.796;2023-05-01T06:08:04;101081.03;;;17.21;34.36
20368;BME280;10343;52.402;9.796;2023-05-01T06:10:34;101082.16;;;16.74;35.32
20368;BME280;10343;52.402;9.796;2023-05-01T06:13:02;101079.19;;;16.60;35.35
20368;BME280;10343;52.402;9.796;2023-05-01T06:15:45;101087.69;;;17.12;34.38
20368;BME280;10343;52.402;9.796;2023-05-01T06:18:17;101086.75;;;17.72;33.63
20368;BME280;10343;52.402;9.796;2023-05-01T06:20:48;101075.47;;;17.85;33.14
20368;BME280;10343;52.402;9.796;2023-05-01T06:23:18;101069.91;;;18.45;32.06
20368;BME280;10343;52.402;9.796;2023-05-01T06:26:15;101075.34;;;18.61;32.16
20368;BME280;10343;52.402;9.796;2023-05-01T06:28:44;101084.94;;;17.14;33.63
20368;BME280;10343;52.402;9.796;2023-05-01T06:31:13;101076.16;;;18.09;32.80
20368;BME280;10343;52.402;9.796;2023-05-01T06:33:48;101073.94;;;17.79;32.91
20368;BME280;10343;52.402;9.796;2023-05-01T06:36:43;101066.03;;;18.14;32.62
20368;BME280;10343;52.402;9.796;2023-05-01T06:39:12;101053.66;;;18.83;31.69
20368;BME280;10343;52.402;9.796;2023-05-01T06:41:46;101067.00;;;17.94;32.74
20368;BME280;10343;52.402;9.796;2023-05-01T06:44:18;101048.00;;;18.53;31.92
20368;BME280;10343;52.402;9.796;2023-05-01T06:46:52;101048.75;;;19.09;31.48
20368;BME280;10343;52.402;9.796;2023-05-01T06:49:20;101053.19;;;18.75;31.70
20368;BME280;10343;52.402;9.796;2023-05-01T06:51:54;101043.34;;;19.92;30.23
20368;BME280;10343;52.402;9.796;2023-05-01T06:54:23;101048.34;;;20.30;29.54
20368;BME280;10343;52.402;9.796;2023-05-01T06:56:56;101040.09;;;20.33;29.65
20368;BME280;10343;52.402;9.796;2023-05-01T06:59:26;101041.97;;;21.08;28.81
20368;BME280;10343;52.402;9.796;2023-05-01T07:01:55;101049.91;;;20.34;29.52
20368;BME280;10343;52.402;9.796;2023-05-01T07:04:31;101044.09;;;20.42;29.15
20368;BME280;10343;52.402;9.796;2023-05-01T07:07:01;101035.69;;;19.68;29.96
20368;BME280;10343;52.402;9.796;2023-05-01T07:09:31;101032.03;;;19.69;30.04
20368;BME280;10343;52.402;9.796;2023-05-01T07:11:59;101037.50;;;20.62;29.02
20368;BME280;10343;52.402;9.796;2023-05-01T07:14:29;101027.19;;;19.76;29.74
20368;BME280;10343;52.402;9.796;2023-05-01T07:16:57;101026.47;;;20.66;28.92
20368;BME280;10343;52.402;9.796;2023-05-01T07:19:26;101020.78;;;20.57;29.04
20368;BME280;10343;52.402;9.796;2023-05-01T07:21:58;101027.25;;;20.68;28.92
20368;BME280;10343;52.402;9.796;2023-05-01T07:24:32;101023.72;;;20.82;28.66
20368;BME280;10343;52.402;9.796;2023-05-01T07:27:02;101023.16;;;19.35;30.31
20368;BME280;10343;52.402;9.796;2023-05-01T07:29:30;101009.09;;;20.72;28.85
20368;BME280;10343;52.402;9.796;2023-05-01T07:32:04;101015.00;;;18.85;31.07
20368;BME280;10343;52.402;9.796;2023-05-01T07:34:35;101018.97;;;19.95;29.76
20368;BME280;10343;52.402;9.796;2023-05-01T07:37:12;101015.69;;;20.06;29.65
20368;BME280;10343;52.402;9.796;2023-05-01T07:39:45;101008.34;;;19.60;29.90
20368;BME280;10343;52.402;9.796;2023-05-01T07:42:15;101012.56;;;19.97;29.53
20368;BME280;10343;52.402;9.796;2023-05-01T07:44:49;101004.31;;;20.92;28.39
20368;BME280;10343;52.402;9.796;2023-05-01T07:47:18;101003.81;;;20.70;28.35
20368;BME280;10343;52.402;9.796;2023-05-01T07:49:47;101004.78;;;20.23;29.37
20368;BME280;10343;52.402;9.796;2023-05-01T07:52:16;101011.38;;;19.54;29.62
20368;BME280;10343;52.402;9.796;2023-05-01T07:54:49;101005.59;;;19.77;29.31
20368;BME280;10343;52.402;9.796;2023-05-01T07:57:18;101004.34;;;20.31;28.91
20368;BME280;10343;52.402;9.796;2023-05-01T07:59:46;101000.28;;;19.92;29.49
20368;BME280;10343;52.402;9.796;2023-05-01T08:02:15;100999.03;;;20.90;28.24
20368;BME280;10343;52.402;9.796;2023-05-01T08:04:44;100983.09;;;21.43;27.66
20368;BME280;10343;52.402;9.796;2023-05-01T08:07:14;100981.66;;;22.61;26.12
20368;BME280;10343;52.402;9.796;2023-05-01T08:09:42;100981.91;;;22.31;26.99
20368;BME280;10343;52.402;9.796;2023-05-01T08:12:12;100980.50;;;22.91;26.19
20368;BME280;10343;52.402;9.796;2023-05-01T08:14:43;100984.69;;;20.90;28.72
20368;BME280;10343;52.402;9.796;2023-05-01T08:17:12;100977.16;;;21.24;28.64
20368;BME280;10343;52.402;9.796;2023-05-01T08:19:41;100976.00;;;20.99;29.57
20368;BME280;10343;52.402;9.796;2023-05-01T08:22:10;100973.44;;;21.82;27.97
20368;BME280;10343;52.402;9.796;2023-05-01T08:24:39;100974.28;;;20.98;29.17
20368;BME280;10343;52.402;9.796;2023-05-01T08:27:08;100971.53;;;21.70;28.87
20368;BME280;10343;52.402;9.796;2023-05-01T08:29:38;100961.34;;;22.94;27.19
20368;BME280;10343;52.402;9.796;2023-05-01T08:32:06;100969.69;;;23.17;27.07
20368;BME280;10343;52.402;9.796;2023-05-01T08:34:35;100965.53;;;23.11;26.52
20368;BME280;10343;52.402;9.796;2023-05-01T08:37:03;100963.56;;;21.40;28.65
20368;BME280;10343;52.402;9.796;2023-05-01T08:39:32;100967.06;;;22.64;27.32
20368;BME280;10343;52.402;9.796;2023-05-01T08:42:00;100966.16;;;21.70;28.52
20368;BME280;10343;52.402;9.796;2023-05-01T08:44:30;100958.69;;;22.01;28.19
20368;BME280;10343;52.402;9.796;2023-05-01T08:47:06;100956.38;;;23.01;26.80
20368;BME280;10343;52.402;9.796;2023-05-01T08:49:39;100958.84;;;21.43;28.76
20368;BME280;10343;52.402;9.796;2023-05-01T08:52:11;100951.72;;;22.51;27.68
20368;BME280;10343;52.402;9.796;2023-05-01T08:54:41;100952.47;;;21.44;28.68
20368;BME280;10343;52.402;9.796;2023-05-01T08:57:11;100956.22;;;21.98;28.37
20368;BME280;10343;52.402;9.796;2023-05-01T08:59:39;100960.88;;;21.96;28.46
20368;BME280;10343;52.402;9.796;2023-05-01T09:02:14;100946.66;;;22.85;27.48
20368;BME280;10343;52.402;9.796;2023-05-01T09:04:42;100949.84;;;24.39;26.02
20368;BME280;10343;52.402;9.796;2023-05-01T09:07:11;100943.84;;;24.58;25.61
20368;BME280;10343;52.402;9.796;2023-05-01T09:09:45;100947.16;;;22.52;28.03
20368;BME280;10343;52.402;9.796;2023-05-01T09:12:20;100943.28;;;22.95;27.60
20368;BME280;10343;52.402;9.796;2023-05-01T09:14:51;100939.34;;;21.94;28.91
20368;BME280;10343;52.402;9.796;2023-05-01T09:17:22;100936.25;;;23.31;27.35
20368;BME280;10343;52.402;9.796;2023-05-01T09:19:51;100949.75;;;22.53;28.38
20368;BME280;10343;52.402;9.796;2023-05-01T09:22:19;100933.78;;;23.15;27.57
20368;BME280;10343;52.402;9.796;2023-05-01T09:24:50;100936.94;;;24.07;26.95
20368;BME280;10343;52.402;9.796;2023-05-01T09:27:23;100916.19;;;25.34;25.30
20368;BME280;10343;52.402;9.796;2023-05-01T09:29:52;100927.72;;;23.61;26.79
20368;BME280;10343;52.402;9.796;2023-05-01T09:32:23;100926.38;;;23.67;27.02
20368;BME280;10343;52.402;9.796;2023-05-01T09:34:55;100921.31;;;23.86;26.98
20368;BME280;10343;52.402;9.796;2023-05-01T09:37:36;100903.59;;;24.87;25.77
20368;BME280;10343;52.402;9.796;2023-05-01T09:40:06;100910.25;;;25.51;25.03
20368;BME280;10343;52.402;9.796;2023-05-01T09:42:35;100894.84;;;25.73;24.91
20368;BME280;10343;52.402;9.796;2023-05-01T09:45:11;100903.34;;;25.24;25.16
20368;BME280;10343;52.402;9.796;2023-05-01T09:47:44;100895.25;;;25.02;25.46
20368;BME280;10343;52.402;9.796;2023-05-01T09:50:28;100898.09;;;24.42;26.36
20368;BME280;10343;52.402;9.796;2023-05-01T09:52:56;100904.28;;;23.97;26.47
20368;BME280;10343;52.402;9.796;2023-05-01T09:55:29;100895.28;;;23.97;27.37
20368;BME280;10343;52.402;9.796;2023-05-01T09:58:01;100902.59;;;23.35;27.40
20368;BME280;10343;52.402;9.796;2023-05-01T10:00:30;100897.28;;;24.06;26.69
20368;BME280;10343;52.402;9.796;2023-05-01T10:03:11;100894.34;;;25.35;25.55
20368;BME280;10343;52.402;9.796;2023-05-01T10:05:44;100888.81;;;25.14;25.83
20368;BME280;10343;52.402;9.796;2023-05-01T10:08:13;100888.22;;;25.66;25.78
20368;BME280;10343;52.402;9.796;2023-05-01T10:10:41;100890.06;;;24.76;26.44
20368;BME280;10343;52.402;9.796;2023-05-01T10:13:13;100881.28;;;25.73;25.04
20368;BME280;10343;52.402;9.796;2023-05-01T10:15:41;100875.81;;;25.84;24.90
20368;BME280;10343;52.402;9.796;2023-05-01T10:18:13;100881.75;;;25.78;25.13
20368;BME280;10343;52.402;9.796;2023-05-01T10:20:41;100875.34;;;26.64;24.20
20368;BME280;10343;52.402;9.796;2023-05-01T10:23:10;100877.09;;;25.69;25.16
20368;BME280;10343;52.402;9.796;2023-05-01T10:25:40;100877.97;;;25.14;25.50
20368;BME280;10343;52.402;9.796;2023-05-01T10:28:10;100874.06;;;26.16;25.08
20368;BME280;10343;52.402;9.796;2023-05-01T10:30:40;100876.31;;;25.78;24.92
20368;BME280;10343;52.402;9.796;2023-05-01T10:33:13;100870.81;;;27.05;23.36
20368;BME280;10343;52.402;9.796;2023-05-01T10:35:44;100859.09;;;27.04;23.37
20368;BME280;10343;52.402;9.796;2023-05-01T10:38:20;100860.25;;;27.11;23.40
20368;BME280;10343;52.402;9.796;2023-05-01T10:40:50;100849.53;;;26.79;23.29
20368;BME280;10343;52.402;9.796;2023-05-01T10:43:20;100850.19;;;28.69;22.36
20368;BME280;10343;52.402;9.796;2023-05-01T10:45:52;100844.44;;;29.27;21.42
20368;BME280;10343;52.402;9.796;2023-05-01T10:48:56;100854.63;;;27.73;22.38
20368;BME280;10343;52.402;9.796;2023-05-01T10:51:25;100857.50;;;27.52;23.34
20368;BME280;10343;52.402;9.796;2023-05-01T10:54:21;100834.50;;;28.23;22.61
20368;BME280;10343;52.402;9.796;2023-05-01T10:56:56;100834.56;;;27.65;23.38
20368;BME280;10343;52.402;9.796;2023-05-01T10:59:26;100840.56;;;27.58;23.04
20368;BME280;10343;52.402;9.796;2023-05-01T11:01:54;100831.16;;;27.12;23.51
20368;BME280;10343;52.402;9.796;2023-05-01T11:04:45;100836.91;;;27.28;23.62
20368;BME280;10343;52.402;9.796;2023-05-01T11:07:25;100831.34;;;27.30;23.16
20368;BME280;10343;52.402;9.796;2023-05-01T11:09:54;100820.38;;;27.51;23.27
20368;BME280;10343;52.402;9.796;2023-05-01T11:12:47;100822.81;;;27.54;23.57
20368;BME280;10343;52.402;9.796;2023-05-01T11:15:30;100815.50;;;27.65;22.83
20368;BME280;10343;52.402;9.796;2023-05-01T11:18:00;100820.03;;;27.93;23.06
20368;BME280;10343;52.402;9.796;2023-05-01T11:20:48;100810.31;;;27.81;22.78
20368;BME280;10343;52.402;9.796;2023-05-01T11:23:20;100808.19;;;27.75;22.80
20368;BME280;10343;52.402;9.796;2023-05-01T11:25:49;100810.22;;;28.40;22.22
20368;BME280;10343;52.402;9.796;2023-05-01T11:28:29;100812.44;;;28.17;22.50
20368;BME280;10343;52.402;9.796;2023-05-01T11:30:59;100805.88;;;28.00;22.69
20368;BME280;10343;52.402;9.796;2023-05-01T11:33:27;100812.44;;;27.28;23.69
20368;BME280;10343;52.402;9.796;2023-05-01T11:36:01;100816.13;;;27.08;23.67
20368;BME280;10343;52.402;9.796;2023-05-01T11:38:30;100798.97;;;27.95;23.09
20368;BME280;10343;52.402;9.796;2023-05-01T11:41:02;100797.09;;;28.53;22.23
20368;BME280;10343;52.402;9.796;2023-05-01T11:43:30;100795.91;;;29.57;21.65
20368;BME280;10343;52.402;9.796;2023-05-01T11:45:58;100789.06;;;28.24;22.78
20368;BME280;10343;52.402;9.796;2023-05-01T11:48:30;100785.03;;;29.11;21.87
20368;BME280;10343;52.402;9.796;2023-05-01T11:50:59;100781.72;;;29.36;21.39
20368;BME280;10343;52.402;9.796;2023-05-01T11:53:28;100785.22;;;28.82;21.65
20368;BME280;10343;52.402;9.796;2023-05-01T11:55:56;100777.09;;;27.68;22.86
20368;BME280;10343;52.402;9.796;2023-05-01T11:58:32;100778.31;;;28.50;22.21
20368;BME280;10343;52.402;9.796;2023-05-01T12:01:01;100766.91;;;29.38;21.67
20368;BME280;10343;52.402;9.796;2023-05-01T12:03:39;100768.50;;;29.13;22.19
20368;BME280;10343;52.402;9.796;2023-05-01T12:06:10;100757.78;;;29.74;21.59
20368;BME280;10343;52.402;9.796;2023-05-01T12:08:43;100766.28;;;29.26;21.38
20368;BME280;10343;52.402;9.796;2023-05-01T12:11:12;100769.28;;;28.12;21.88
20368;BME280;10343;52.402;9.796;2023-05-01T12:13:40;100771.63;;;29.18;21.56
20368;BME280;10343;52.402;9.796;2023-05-01T12:16:09;100776.03;;;28.83;21.43
20368;BME280;10343;52.402;9.796;2023-05-01T12:18:37;100763.72;;;28.79;21.46
20368;BME280;10343;52.402;9.796;2023-05-01T12:21:15;100773.97;;;29.49;21.70
20368;BME280;10343;52.402;9.796;2023-05-01T12:23:44;100770.22;;;29.68;21.22
20368;BME280;10343;52.402;9.796;2023-05-01T12:26:16;100774.66;;;28.69;22.03
20368;BME280;10343;52.402;9.796;2023-05-01T12:28:59;100771.97;;;30.22;20.95
20368;BME280;10343;52.402;9.796;2023-05-01T12:31:28;100766.22;;;28.90;21.45
20368;BME280;10343;52.402;9.796;2023-05-01T12:33:57;100767.66;;;27.52;22.96
20368;BME280;10343;52.402;9.796;2023-05-01T12:36:29;100754.22;;;28.08;22.69
20368;BME280;10343;52.402;9.796;2023-05-01T12:38:58;100749.19;;;29.24;21.92
20368;BME280;10343;52.402;9.796;2023-05-01T12:41:38;100754.25;;;29.19;21.92
20368;BME280;10343;52.402;9.796;2023-05-01T12:44:19;100754.19;;;29.47;21.30
20368;BME280;10343;52.402;9.796;2023-05-01T12:46:55;100758.31;;;28.32;22.16
20368;BME280;10343;52.402;9.796;2023-05-01T12:49:26;100757.97;;;29.00;20.89
20368;BME280;10343;52.402;9.796;2023-05-01T12:51:57;100736.25;;;29.71;20.71
20368;BME280;10343;52.402;9.796;2023-05-01T12:54:27;100738.19;;;30.31;20.15
20368;BME280;10343;52.402;9.796;2023-05-01T12:57:04;100731.06;;;29.59;21.01
20368;BME280;10343;52.402;9.796;2023-05-01T12:59:34;100727.16;;;29.08;21.63
20368;BME280;10343;52.402;9.796;2023-05-01T13:02:04;100734.53;;;29.25;21.29
20368;BME280;10343;52.402;9.796;2023-05-01T13:04:34;100728.16;;;28.61;22.09
20368;BME280;10343;52.402;9.796;2023-05-01T13:07:09;100723.78;;;29.68;21.18
20368;BME280;10343;52.402;9.796;2023-05-01T13:09:38;100732.38;;;28.83;21.87
20368;BME280;10343;52.402;9.796;2023-05-01T13:12:06;100737.19;;;28.71;21.40
20368;BME280;10343;52.402;9.796;2023-05-01T13:14:35;100721.66;;;29.36;20.97